Time;durP1;ratioP1;P1;durP2;ratioP2;P2;SDS_P1;SDS_P2;PMS_P1;PMS_P2;Temp;Humidity;BMP_temperature;BMP_pressure;BME280_temperature;BME280_humidity;BME280_pressure;Samples;Min_cycle;Max_cycle;Signal;HPM_P1;HPM_P2
2022/01/17 00:01:45;;;;;;;98.07;40.03;;;;;;;6.83;100.00;102624.13;5064843;28;20135;-73
2022/01/17 00:04:12;;;;;;;84.97;31.02;;;;;;;6.78;100.00;102633.34;5057889;28;20044;-76
2022/01/17 00:06:39;;;;;;;82.82;33.95;;;;;;;6.84;100.00;102623.00;5068724;28;20079;-73
2022/01/17 00:09:06;;;;;;;90.93;34.38;;;;;;;6.80;100.00;102614.59;5064847;28;20052;-75
2022/01/17 00:11:35;;;;;;;35.63;17.25;;;;;;;6.81;100.00;102629.13;5060390;28;20428;-74
2022/01/17 00:14:04;;;;;;;74.13;29.17;;;;;;;6.82;100.00;102630.78;5066081;28;20048;-74
2022/01/17 00:16:40;;;;;;;94.10;37.50;;;;;;;6.87;100.00;102630.59;5067061;28;20405;-76
2022/01/17 00:19:31;;;;;;;40.60;13.15;;;;;;;6.80;100.00;102630.28;5066278;28;20058;-74
2022/01/17 00:21:53;;;;;;;36.88;14.60;;;;;;;6.85;100.00;102622.66;5065053;28;20058;-74
2022/01/17 00:24:21;;;;;;;79.68;33.00;;;;;;;6.90;100.00;102624.44;5065917;28;20086;-74
2022/01/17 00:26:50;;;;;;;78.18;30.27;;;;;;;6.91;100.00;102628.81;5067079;28;20142;-74
2022/01/17 00:29:16;;;;;;;89.30;35.20;;;;;;;6.94;100.00;102619.91;5070008;28;20076;-75
2022/01/17 00:31:43;;;;;;;46.17;18.80;;;;;;;6.85;100.00;102616.38;5065983;28;20161;-75
2022/01/17 00:34:10;;;;;;;80.43;32.72;;;;;;;6.84;100.00;102600.97;5060502;28;20135;-74
2022/01/17 00:36:36;;;;;;;86.75;36.40;;;;;;;6.91;100.00;102609.53;5080489;28;20084;-74
2022/01/17 00:39:03;;;;;;;56.15;23.02;;;;;;;6.89;100.00;102612.63;5065588;28;20131;-74
2022/01/17 00:41:30;;;;;;;43.80;18.17;;;;;;;6.84;100.00;102610.06;5057480;28;20172;-74
2022/01/17 00:43:56;;;;;;;80.18;32.72;;;;;;;6.91;100.00;102610.34;5064533;28;20076;-73
2022/01/17 00:46:23;;;;;;;69.63;27.38;;;;;;;6.88;100.00;102596.44;5065721;28;20040;-75
2022/01/17 00:48:51;;;;;;;75.97;30.17;;;;;;;6.93;100.00;102613.59;5063686;28;20048;-75
2022/01/17 00:51:18;;;;;;;75.32;29.30;;;;;;;6.93;100.00;102605.34;5066707;28;20121;-75
2022/01/17 00:53:45;;;;;;;73.00;30.02;;;;;;;6.90;100.00;102611.50;5068417;28;20059;-75
2022/01/17 00:56:11;;;;;;;58.50;25.35;;;;;;;6.92;100.00;102616.69;5062766;28;20128;-75
2022/01/17 00:58:39;;;;;;;57.33;22.75;;;;;;;6.92;100.00;102620.22;5067387;28;20049;-76
2022/01/17 01:01:06;;;;;;;65.47;29.10;;;;;;;6.89;100.00;102625.59;5064188;28;20094;-74
2022/01/17 01:03:33;;;;;;;70.18;28.83;;;;;;;6.96;100.00;102621.19;5069770;28;20071;-75
2022/01/17 01:05:59;;;;;;;26.35;11.45;;;;;;;6.93;100.00;102616.34;5064211;28;20084;-75
2022/01/17 01:08:26;;;;;;;21.08;9.88;;;;;;;6.88;100.00;102607.44;5068672;28;20144;-74
2022/01/17 01:10:53;;;;;;;30.40;14.98;;;;;;;6.92;100.00;102613.94;5067921;28;20151;-75
2022/01/17 01:13:22;;;;;;;30.77;13.13;;;;;;;6.98;100.00;102612.59;5065696;28;20068;-74
2022/01/17 01:29:02;;;;;;;56.05;22.95;;;;;;;6.92;100.00;102620.22;5070027;28;20051;-75
2022/01/17 01:31:43;;;;;;;57.65;20.45;;;;;;;6.95;100.00;102633.34;5069003;28;20052;-74
2022/01/17 01:34:11;;;;;;;26.92;11.07;;;;;;;6.90;100.00;102640.94;5067728;28;20109;-75
2022/01/17 01:36:39;;;;;;;67.38;28.63;;;;;;;6.98;100.00;102645.63;5068340;28;20084;-75
2022/01/17 01:39:07;;;;;;;38.70;16.70;;;;;;;6.96;100.00;102648.69;5069631;28;20044;-75
2022/01/17 01:41:39;;;;;;;26.23;10.90;;;;;;;6.89;100.00;102667.66;5082932;28;20071;-76
2022/01/17 01:44:14;;;;;;;66.13;30.83;;;;;;;6.96;100.00;102667.97;5066545;28;20045;-75
2022/01/17 01:46:41;;;;;;;70.72;27.17;;;;;;;6.93;100.00;102665.91;5067475;28;20048;-74
2022/01/17 01:49:08;;;;;;;59.10;23.70;;;;;;;6.92;100.00;102656.00;5065432;28;20059;-75
2022/01/17 01:51:35;;;;;;;66.07;30.63;;;;;;;6.72;100.00;102648.41;5064867;28;20052;-75
2022/01/17 01:54:03;;;;;;;70.70;29.45;;;;;;;6.91;100.00;102645.31;5065476;28;20135;-75
2022/01/17 01:56:30;;;;;;;50.05;18.60;;;;;;;6.86;100.00;102651.00;5067837;28;20060;-74
2022/01/17 01:58:57;;;;;;;63.42;24.10;;;;;;;6.85;100.00;102635.63;5065487;28;20072;-74
2022/01/17 02:01:24;;;;;;;57.72;23.83;;;;;;;6.85;100.00;102639.19;5069467;28;20080;-74
2022/01/17 02:03:51;;;;;;;76.38;31.38;;;;;;;6.83;100.00;102651.66;5065484;28;20056;-74
2022/01/17 02:06:17;;;;;;;24.35;8.85;;;;;;;6.79;100.00;102640.47;5067301;28;20059;-74
2022/01/17 02:08:44;;;;;;;32.25;13.23;;;;;;;6.75;100.00;102647.75;5067573;28;20137;-74
2022/01/17 02:11:11;;;;;;;51.22;22.02;;;;;;;6.83;100.00;102646.97;5067613;28;20139;-77
2022/01/17 02:13:41;;;;;;;33.63;15.13;;;;;;;6.78;100.00;102643.56;5060609;28;20080;-74
2022/01/17 02:16:12;;;;;;;68.65;24.98;;;;;;;6.83;100.00;102663.47;5072027;28;20127;-75
2022/01/17 02:18:41;;;;;;;27.48;10.88;;;;;;;6.79;100.00;102665.22;5068068;28;20098;-74
2022/01/17 02:23:39;;;;;;;64.90;25.08;;;;;;;6.81;100.00;102648.41;5062108;28;20136;-76
2022/01/17 02:26:06;;;;;;;41.28;17.65;;;;;;;6.83;100.00;102646.97;5068033;28;20466;-75
2022/01/17 02:28:36;;;;;;;59.83;23.38;;;;;;;6.82;100.00;102650.84;5084785;28;20456;-74
2022/01/17 02:31:07;;;;;;;38.78;16.20;;;;;;;6.82;100.00;102652.78;5067327;28;20131;-74
2022/01/17 02:33:34;;;;;;;76.18;29.35;;;;;;;6.84;100.00;102658.75;5069556;28;20076;-76
2022/01/17 02:36:02;;;;;;;55.42;21.40;;;;;;;6.84;100.00;102643.06;5070337;28;20402;-77
2022/01/17 02:38:29;;;;;;;39.30;15.90;;;;;;;6.82;100.00;102647.28;5067207;28;20044;-74
2022/01/17 02:40:56;;;;;;;51.47;19.30;;;;;;;6.80;100.00;102624.78;5067334;28;20125;-76
2022/01/17 02:43:24;;;;;;;44.83;18.33;;;;;;;6.80;100.00;102635.78;5067997;28;20071;-74
2022/01/17 02:48:24;;;;;;;69.25;27.10;;;;;;;6.80;100.00;102633.03;5065682;28;20044;-75
2022/01/17 02:50:52;;;;;;;74.15;29.20;;;;;;;6.82;100.00;102622.53;5066553;28;20048;-75
2022/01/17 02:53:19;;;;;;;34.60;13.90;;;;;;;6.79;100.00;102634.97;5068858;28;20045;-75
2022/01/17 02:55:49;;;;;;;33.97;13.68;;;;;;;6.80;100.00;102625.59;5068424;28;20052;-75
2022/01/17 02:58:21;;;;;;;89.82;35.75;;;;;;;6.85;100.00;102616.38;5066030;28;20037;-74
2022/01/17 03:00:50;;;;;;;61.88;25.42;;;;;;;6.77;100.00;102622.69;5068403;28;20588;-76
2022/01/17 03:03:20;;;;;;;73.10;29.98;;;;;;;6.85;100.00;102622.66;5068034;28;20476;-74
2022/01/17 03:05:48;;;;;;;45.35;18.85;;;;;;;6.78;100.00;102635.31;5067104;28;20053;-74
2022/01/17 03:08:20;;;;;;;26.42;12.95;;;;;;;6.77;100.00;102622.69;5067975;28;20044;-76
2022/01/17 03:10:50;;;;;;;64.68;25.77;;;;;;;6.73;100.00;102624.47;5068637;28;20048;-73
2022/01/17 03:13:24;;;;;;;84.70;30.48;;;;;;;6.82;100.00;102630.78;5065956;28;20161;-75
2022/01/17 03:15:55;;;;;;;64.20;24.33;;;;;;;6.80;100.00;102641.28;5063984;28;20052;-75
2022/01/17 03:18:23;;;;;;;65.55;26.38;;;;;;;6.80;100.00;102638.53;5068181;28;20048;-76
2022/01/17 03:20:50;;;;;;;44.63;17.35;;;;;;;6.73;100.00;102643.72;5068002;28;20060;-74
2022/01/17 03:23:17;;;;;;;69.72;26.00;;;;;;;6.73;100.00;102629.97;5068333;28;20095;-74
2022/01/17 03:25:44;;;;;;;49.60;17.48;;;;;;;6.78;100.00;102635.31;5067836;28;20076;-77
2022/01/17 03:28:11;;;;;;;78.15;31.83;;;;;;;6.78;100.00;102638.88;5068450;28;20080;-73
2022/01/17 03:30:37;;;;;;;37.55;14.18;;;;;;;6.76;100.00;102645.84;5068298;28;20144;-73
2022/01/17 03:33:07;;;;;;;48.42;19.42;;;;;;;6.77;100.00;102636.44;5066916;28;20432;-77
2022/01/17 03:35:34;;;;;;;41.17;19.60;;;;;;;6.78;100.00;102635.31;5069220;28;20070;-73
2022/01/17 03:38:00;;;;;;;26.23;10.73;;;;;;;6.72;100.00;102633.88;5067550;28;20056;-74
2022/01/17 03:40:27;;;;;;;70.47;24.75;;;;;;;6.79;100.00;102634.97;5067827;28;20056;-74
2022/01/17 03:42:53;;;;;;;24.88;10.88;;;;;;;6.75;100.00;102634.00;5066552;28;20060;-74
2022/01/17 03:45:20;;;;;;;57.58;22.98;;;;;;;6.79;100.00;102642.44;5067590;28;20484;-77
2022/01/17 03:47:50;;;;;;;16.02;7.60;;;;;;;6.77;100.00;102640.00;5066994;28;20056;-75
2022/01/17 03:50:20;;;;;;;56.45;23.42;;;;;;;6.79;100.00;102647.94;5067695;28;20151;-76
2022/01/17 03:52:48;;;;;;;67.70;28.48;;;;;;;6.80;100.00;102646.78;5065059;28;20062;-74
2022/01/17 03:55:17;;;;;;;31.50;11.82;;;;;;;6.74;100.00;102648.91;5067951;28;20531;-75
2022/01/17 03:57:44;;;;;;;46.17;18.15;;;;;;;6.81;100.00;102651.97;5067511;28;20132;-75
2022/01/17 04:00:23;;;;;;;32.78;12.95;;;;;;;6.80;100.00;102642.09;5067492;28;20153;-75
2022/01/17 04:02:52;;;;;;;58.95;23.05;;;;;;;6.83;100.00;102652.47;5080966;28;20056;-74
2022/01/17 04:05:19;;;;;;;66.55;26.60;;;;;;;6.80;100.00;102658.63;5067666;28;20060;-73
2022/01/17 04:07:46;;;;;;;17.80;7.93;;;;;;;6.78;100.00;102652.63;5066205;28;20052;-74
2022/01/17 04:10:13;;;;;;;64.60;25.42;;;;;;;6.79;100.00;102645.19;5067678;28;20052;-74
2022/01/17 04:12:41;;;;;;;35.42;12.60;;;;;;;6.82;100.00;102656.34;5067454;28;20089;-74
2022/01/17 04:15:09;;;;;;;50.47;18.23;;;;;;;6.82;100.00;102666.56;5071307;28;20050;-74
2022/01/17 04:17:36;;;;;;;47.90;19.92;;;;;;;6.79;100.00;102664.44;5065556;28;20052;-74
2022/01/17 04:20:08;;;;;;;45.15;20.08;;;;;;;6.83;100.00;102654.41;5067963;28;20052;-74
2022/01/17 04:22:42;;;;;;;68.40;27.10;;;;;;;6.84;100.00;102658.75;5067265;28;20052;-75
2022/01/17 04:25:09;;;;;;;56.05;22.40;;;;;;;6.86;100.00;102667.50;5068333;28;20052;-73
2022/01/17 04:27:37;;;;;;;51.38;21.58;;;;;;;6.87;100.00;102674.63;5070035;28;20083;-75
2022/01/17 04:30:05;;;;;;;31.10;12.07;;;;;;;6.75;100.00;102674.50;5071246;28;20051;-74
2022/01/17 04:32:33;;;;;;;39.80;15.10;;;;;;;6.84;100.00;102664.25;5071484;28;20071;-73
2022/01/17 04:34:59;;;;;;;44.00;19.40;;;;;;;6.86;100.00;102670.25;5078501;28;20048;-74
2022/01/17 04:37:26;;;;;;;50.80;19.90;;;;;;;6.87;100.00;102677.38;5077489;28;20160;-73
2022/01/17 04:39:52;;;;;;;26.30;11.05;;;;;;;6.86;100.00;102664.75;5071281;28;20123;-74
2022/01/17 04:42:26;;;;;;;41.53;18.92;;;;;;;6.86;100.00;102656.50;5070119;28;20522;-76
2022/01/17 04:45:08;;;;;;;43.78;17.58;;;;;;;6.85;100.00;102668.66;5071200;28;20056;-74
2022/01/17 04:47:37;;;;;;;39.63;14.57;;;;;;;6.88;100.00;102659.72;5070659;28;20135;-74
2022/01/17 04:50:09;;;;;;;43.25;19.38;;;;;;;6.89;100.00;102655.84;5070865;28;20070;-74
2022/01/17 04:52:36;;;;;;;40.67;18.33;;;;;;;6.85;100.00;102660.41;5070247;28;20059;-73
2022/01/17 04:55:09;;;;;;;41.63;14.43;;;;;;;6.83;100.00;102673.66;5071409;28;20049;-74
2022/01/17 04:57:37;;;;;;;40.35;17.33;;;;;;;6.88;100.00;102677.06;5070511;28;20102;-74
2022/01/17 05:00:07;;;;;;;54.80;20.95;;;;;;;6.88;100.00;102677.06;5070638;28;20147;-73
2022/01/17 05:02:33;;;;;;;39.42;16.45;;;;;;;6.82;100.00;102674.81;5071072;28;20049;-74
2022/01/17 05:05:02;;;;;;;21.45;9.77;;;;;;;6.84;100.00;102676.09;5068387;28;20048;-74
2022/01/17 05:07:29;;;;;;;41.97;18.08;;;;;;;6.89;100.00;102684.16;5066808;28;20048;-74
2022/01/17 05:09:56;;;;;;;54.03;19.63;;;;;;;6.84;100.00;102683.53;5071272;28;20058;-75
2022/01/17 05:12:22;;;;;;;37.15;15.43;;;;;;;6.87;100.00;102686.44;5069125;28;20493;-74
2022/01/17 05:14:51;;;;;;;24.85;10.65;;;;;;;6.84;100.00;102689.03;5074348;28;20060;-73
2022/01/17 05:17:42;;;;;;;45.10;18.08;;;;;;;6.86;100.00;102695.84;5068558;28;20131;-75
2022/01/17 05:20:07;;;;;;;22.90;8.85;;;;;;;6.82;100.00;102705.88;5070220;28;20446;-74
2022/01/17 05:22:35;;;;;;;37.95;12.45;;;;;;;6.78;100.00;102704.09;5070297;28;20135;-74
2022/01/17 05:25:09;;;;;;;45.42;15.75;;;;;;;6.89;100.00;102702.63;5069996;28;20424;-74
2022/01/17 05:27:36;;;;;;;44.00;17.20;;;;;;;6.87;100.00;102702.16;5069655;28;20048;-73
2022/01/17 05:30:05;;;;;;;44.22;15.95;;;;;;;6.85;100.00;102702.47;5068706;28;20524;-73
2022/01/17 05:32:31;;;;;;;24.90;8.10;;;;;;;6.73;100.00;102691.31;5068578;28;20592;-74
2022/01/17 05:34:58;;;;;;;28.40;12.32;;;;;;;6.84;100.00;102692.59;5070819;28;20051;-74
2022/01/17 05:37:25;;;;;;;20.27;7.68;;;;;;;6.75;100.00;102700.03;5070455;28;20733;-73
2022/01/17 05:39:51;;;;;;;40.50;13.05;;;;;;;6.81;100.00;102707.00;5069879;28;20776;-73
2022/01/17 05:42:18;;;;;;;30.88;9.95;;;;;;;6.74;100.00;102714.94;5068275;28;20135;-75
2022/01/17 05:44:48;;;;;;;29.77;11.50;;;;;;;6.86;100.00;102717.03;5068818;28;20076;-74
2022/01/17 05:47:15;;;;;;;29.88;10.68;;;;;;;6.83;100.00;102717.69;5070010;28;20056;-74
2022/01/17 05:49:44;;;;;;;28.42;9.35;;;;;;;6.80;100.00;102712.84;5069638;28;20504;-73
2022/01/17 05:52:11;;;;;;;44.72;14.57;;;;;;;6.85;100.00;102715.44;5069291;28;20132;-72
2022/01/17 05:54:38;;;;;;;27.77;8.15;;;;;;;6.82;100.00;102705.06;5069748;28;20056;-74
2022/01/17 05:57:06;;;;;;;35.17;11.70;;;;;;;6.78;100.00;102698.59;5069760;28;20135;-76
2022/01/17 05:59:33;;;;;;;20.55;6.85;;;;;;;6.77;100.00;102681.28;5069809;28;20049;-76
2022/01/17 06:02:05;;;;;;;28.08;10.07;;;;;;;6.78;100.00;102673.84;5068515;28;20421;-73
2022/01/17 06:04:32;;;;;;;32.88;9.63;;;;;;;6.76;100.00;102679.66;5069779;28;20529;-75
2022/01/17 06:06:59;;;;;;;20.05;7.30;;;;;;;6.75;100.00;102682.75;5068803;28;20432;-74
2022/01/17 06:09:26;;;;;;;36.22;10.20;;;;;;;6.77;100.00;102691.47;5066225;28;20171;-74
2022/01/17 06:11:55;;;;;;;32.05;10.57;;;;;;;6.79;100.00;102689.22;5066009;28;20512;-74
2022/01/17 06:14:21;;;;;;;20.05;7.13;;;;;;;6.73;100.00;102677.56;5077963;28;20087;-74
2022/01/17 06:16:49;;;;;;;9.93;4.15;;;;;;;6.71;100.00;102696.31;5069228;28;20048;-74
2022/01/17 06:19:16;;;;;;;10.60;4.10;;;;;;;6.67;100.00;102698.09;5067954;28;20474;-74
2022/01/17 06:21:44;;;;;;;22.30;8.38;;;;;;;6.75;100.00;102702.78;5068915;28;20055;-74
2022/01/17 06:24:15;;;;;;;30.80;9.68;;;;;;;6.78;100.00;102704.09;5069428;28;20771;-74
2022/01/17 06:26:43;;;;;;;20.98;6.43;;;;;;;6.68;100.00;102701.69;5068735;28;20520;-76
2022/01/17 06:29:12;;;;;;;11.50;3.78;;;;;;;6.73;100.00;102712.50;5069587;28;20044;-75
2022/01/17 06:31:40;;;;;;;31.75;11.80;;;;;;;6.75;100.00;102704.75;5067951;28;20164;-76
2022/01/17 06:34:07;;;;;;;17.80;6.20;;;;;;;6.75;100.00;102699.25;5067736;28;20070;-74
2022/01/17 06:36:33;;;;;;;6.65;2.38;;;;;;;6.74;100.00;102697.59;5080213;28;20052;-73
2022/01/17 06:39:00;;;;;;;27.17;7.53;;;;;;;6.73;100.00;102688.56;5067592;28;20051;-75
2022/01/17 06:41:27;;;;;;;26.75;8.55;;;;;;;6.82;100.00;102675.59;5068118;28;20052;-73
2022/01/17 06:43:54;;;;;;;24.05;7.63;;;;;;;6.79;100.00;102675.44;5066517;28;20055;-74
2022/01/17 06:46:22;;;;;;;27.20;9.25;;;;;;;6.85;100.00;102677.69;5059307;28;20044;-73
2022/01/17 06:48:49;;;;;;;15.95;6.07;;;;;;;6.80;100.00;102671.56;5068784;28;20131;-73
2022/01/17 06:51:16;;;;;;;15.13;4.47;;;;;;;6.75;100.00;102666.22;5064231;28;20049;-75
2022/01/17 06:53:43;;;;;;;17.42;6.97;;;;;;;6.83;100.00;102662.66;5068429;28;20059;-74
2022/01/17 06:56:10;;;;;;;25.23;9.05;;;;;;;6.86;100.00;102667.50;5067255;28;20047;-74
2022/01/17 06:58:38;;;;;;;25.73;7.45;;;;;;;6.79;100.00;102683.72;5068681;28;20083;-75
2022/01/17 07:01:04;;;;;;;23.83;8.75;;;;;;;6.81;100.00;102676.75;5060536;28;20081;-74
2022/01/17 07:03:32;;;;;;;19.67;5.65;;;;;;;6.84;100.00;102698.09;5064474;28;20739;-73
2022/01/17 07:05:59;;;;;;;13.70;6.28;;;;;;;6.80;100.00;102696.31;5066648;28;20147;-73
2022/01/17 07:08:25;;;;;;;17.55;6.95;;;;;;;6.76;100.00;102700.84;5068716;28;20056;-75
2022/01/17 07:10:52;;;;;;;21.17;6.25;;;;;;;6.82;100.00;102718.84;5065867;28;20125;-73
2022/01/17 07:13:19;;;;;;;25.63;8.65;;;;;;;6.85;100.00;102742.97;5063296;28;20575;-74
2022/01/17 07:15:45;;;;;;;16.55;6.50;;;;;;;6.82;100.00;102724.34;5058593;28;20601;-73
2022/01/17 07:18:13;;;;;;;16.83;6.30;;;;;;;6.78;100.00;102704.09;5062414;28;20082;-75
2022/01/17 07:20:45;;;;;;;17.40;4.90;;;;;;;6.74;100.00;102692.09;5066781;28;20707;-71
2022/01/17 07:23:11;;;;;;;7.15;3.28;;;;;;;6.75;100.00;102704.75;5065312;28;20072;-72
2022/01/17 07:25:38;;;;;;;31.05;11.65;;;;;;;6.88;100.00;102703.75;5060834;28;20044;-73
2022/01/17 07:28:09;;;;;;;21.00;8.50;;;;;;;6.78;100.00;102710.41;5063806;28;20508;-74
2022/01/17 07:30:36;;;;;;;23.13;8.85;;;;;;;6.80;100.00;102704.56;5068113;28;20055;-73
2022/01/17 07:33:04;;;;;;;21.15;7.05;;;;;;;6.69;100.00;102700.53;5065568;28;20508;-73
2022/01/17 07:35:32;;;;;;;30.55;11.80;;;;;;;6.74;100.00;102723.19;5078120;28;20051;-73
2022/01/17 07:37:59;;;;;;;19.30;6.18;;;;;;;6.63;100.00;102718.31;5067508;28;20549;-74
2022/01/17 07:40:26;;;;;;;15.07;4.72;;;;;;;6.72;100.00;102733.69;5058371;28;20091;-73
2022/01/17 07:42:53;;;;;;;20.30;8.60;;;;;;;6.73;100.00;102740.03;5068267;28;20123;-72
2022/01/17 07:45:20;;;;;;;23.50;8.30;;;;;;;6.74;100.00;102749.88;5057831;28;20084;-75
2022/01/17 07:50:22;;;;;;;28.70;10.25;;;;;;;6.72;100.00;102743.91;5063612;28;20052;-73
2022/01/17 07:52:49;;;;;;;20.33;5.10;;;;;;;6.72;100.00;102743.91;5066910;28;20059;-72
2022/01/17 07:55:17;;;;;;;20.30;8.25;;;;;;;6.73;100.00;102740.03;5072940;28;20048;-72
2022/01/17 07:57:44;;;;;;;21.38;8.50;;;;;;;6.73;100.00;102746.34;5068583;28;20087;-73
2022/01/17 08:00:13;;;;;;;32.22;11.25;;;;;;;6.64;100.00;102747.44;5070613;28;20075;-73
2022/01/17 08:02:40;;;;;;;18.65;7.32;;;;;;;6.72;100.00;102743.91;5067481;28;20144;-73
2022/01/17 08:05:14;;;;;;;33.83;14.90;;;;;;;6.78;100.00;102737.13;5082376;28;20075;-73
2022/01/17 08:07:42;;;;;;;28.80;9.73;;;;;;;6.78;100.00;102753.63;5066674;28;20056;-73
2022/01/17 08:10:12;;;;;;;20.45;9.55;;;;;;;6.75;100.00;102752.31;5056262;28;20076;-75
2022/01/17 08:12:41;;;;;;;34.70;14.98;;;;;;;6.79;100.00;102758.78;5068055;28;20084;-73
2022/01/17 08:15:09;;;;;;;27.85;10.95;;;;;;;6.72;100.00;102769.47;5077437;28;20076;-73
2022/01/17 08:17:36;;;;;;;21.85;9.55;;;;;;;6.74;100.00;102767.22;5064935;28;20048;-73
2022/01/17 08:20:04;;;;;;;22.98;10.20;;;;;;;6.82;100.00;102757.34;5068119;28;20055;-72
2022/01/17 08:22:31;;;;;;;39.88;15.68;;;;;;;6.89;100.00;102754.94;5066136;28;20052;-70
2022/01/17 08:24:58;;;;;;;37.35;17.58;;;;;;;6.86;100.00;102766.59;5068581;28;20139;-71
2022/01/17 08:27:26;;;;;;;21.73;9.98;;;;;;;6.90;100.00;102770.31;5068194;28;20492;-75
2022/01/17 08:29:54;;;;;;;26.10;11.70;;;;;;;6.93;100.00;102783.41;5066589;28;20062;-72
2022/01/17 08:32:41;;;;;;;47.55;19.70;;;;;;;6.95;100.00;102775.66;5066997;28;20045;-74
2022/01/17 08:35:08;;;;;;;44.42;20.02;;;;;;;6.97;100.00;102771.44;5071978;28;20061;-73
2022/01/17 08:37:35;;;;;;;46.83;21.48;;;;;;;7.01;100.00;102780.66;5062929;28;20057;-74
2022/01/17 08:40:05;;;;;;;42.03;18.23;;;;;;;7.02;100.00;102781.50;5059058;28;20051;-73
2022/01/17 08:42:36;;;;;;;27.13;11.20;;;;;;;6.97;100.00;102779.69;5057946;28;20147;-74
2022/01/17 08:45:05;;;;;;;34.42;16.33;;;;;;;6.94;100.00;102769.34;5058347;28;20049;-73
2022/01/17 08:47:32;;;;;;;51.20;21.95;;;;;;;6.99;100.00;102765.63;5066790;28;20634;-74
2022/01/17 08:49:59;;;;;;;45.17;20.15;;;;;;;7.05;100.00;102761.53;5068141;28;20070;-73
2022/01/17 08:52:26;;;;;;;46.60;21.83;;;;;;;7.06;100.00;102772.22;5066947;28;20058;-76
2022/01/17 08:54:53;;;;;;;46.58;22.25;;;;;;;7.15;100.00;102774.97;5067190;28;20869;-74
2022/01/17 08:57:20;;;;;;;52.03;22.23;;;;;;;7.14;100.00;102756.84;5068163;28;20048;-73
2022/01/17 08:59:47;;;;;;;46.65;20.52;;;;;;;7.12;100.00;102764.66;5067477;28;20052;-73
2022/01/17 09:02:14;;;;;;;26.80;12.95;;;;;;;7.08;100.00;102769.97;5065891;28;20159;-74
2022/01/17 09:04:41;;;;;;;37.60;16.23;;;;;;;7.15;100.00;102756.53;5067327;28;20059;-73
2022/01/17 09:07:14;;;;;;;38.03;17.25;;;;;;;7.20;100.00;102761.06;5066861;28;20127;-73
2022/01/17 09:09:43;;;;;;;28.73;11.95;;;;;;;7.20;100.00;102766.56;5071109;28;20501;-73
2022/01/17 09:12:11;;;;;;;32.38;15.35;;;;;;;7.20;100.00;102772.91;5066600;28;20135;-74
2022/01/17 09:14:38;;;;;;;27.17;14.25;;;;;;;7.22;100.00;102776.13;5078535;28;20062;-73
2022/01/17 09:17:07;;;;;;;37.90;15.70;;;;;;;7.26;100.00;102779.84;5070138;28;20147;-75
2022/01/17 09:19:36;;;;;;;15.15;5.10;;;;;;;7.25;100.00;102786.50;5070005;28;20569;-73
2022/01/17 09:22:04;;;;;;;25.30;8.70;;;;;;;7.27;100.00;102780.66;5069394;28;20490;-74
2022/01/17 09:24:30;;;;;;;37.15;15.85;;;;;;;7.30;100.00;102791.03;5068753;28;20048;-73
2022/01/17 09:26:57;;;;;;;20.85;10.40;;;;;;;7.26;100.00;102790.84;5080195;28;20177;-75
2022/01/17 09:29:23;;;;;;;43.92;21.92;;;;;;;7.32;100.00;102788.75;5070740;28;20374;-73
2022/01/17 09:31:50;;;;;;;17.02;7.97;;;;;;;7.31;100.00;102778.88;5069597;28;20059;-74
2022/01/17 09:34:17;;;;;;;43.80;16.13;;;;;;;7.40;100.00;102787.94;5070088;28;20538;-75
2022/01/17 09:36:43;;;;;;;45.17;21.15;;;;;;;7.45;100.00;102790.50;5073749;28;20048;-75
2022/01/17 09:39:10;;;;;;;27.08;11.55;;;;;;;7.40;100.00;102798.97;5067210;28;20102;-74
2022/01/17 09:41:39;;;;;;;35.40;14.50;;;;;;;7.41;100.00;102809.66;5054449;28;20057;-73
2022/01/17 09:44:06;;;;;;;39.00;19.77;;;;;;;7.45;100.00;102804.28;5065674;28;20863;-74
2022/01/17 09:46:38;;;;;;;26.83;10.75;;;;;;;7.39;100.00;102811.13;5069969;28;20135;-73
2022/01/17 09:49:24;;;;;;;43.15;19.98;;;;;;;7.46;100.00;102830.72;5070356;28;20144;-73
2022/01/17 09:54:30;;;;;;;42.42;21.20;;;;;;;7.43;100.00;102842.38;5068251;28;20080;-75
2022/01/17 09:56:59;;;;;;;28.70;13.70;;;;;;;7.35;100.00;102852.25;5068406;28;20131;-73
2022/01/17 09:59:26;;;;;;;22.23;12.07;;;;;;;7.31;100.00;102839.47;5068604;28;20128;-72
2022/01/17 10:01:52;;;;;;;34.03;14.93;;;;;;;7.22;100.00;102850.47;5068784;28;20055;-73
2022/01/17 10:04:19;;;;;;;19.90;9.63;;;;;;;7.23;100.00;102852.06;5069830;28;20052;-74
2022/01/17 10:06:53;;;;;;;37.60;19.63;;;;;;;7.26;100.00;102842.38;5069657;28;20524;-73
2022/01/17 10:09:22;;;;;;;45.83;20.90;;;;;;;7.24;100.00;102864.75;5067977;28;20497;-73
2022/01/17 10:12:11;;;;;;;14.43;6.00;;;;;;;7.20;100.00;102860.19;5059273;28;20127;-72
2022/01/17 10:15:01;;;;;;;24.10;8.77;;;;;;;7.08;100.00;102847.06;5071326;28;20131;-71
2022/01/17 10:17:45;;;;;;;8.25;4.55;;;;;;;7.11;100.00;102856.63;5068723;28;20729;-73
2022/01/17 10:20:15;;;;;;;22.55;9.15;;;;;;;7.05;100.00;102871.66;5070012;28;20463;-71
2022/01/17 10:22:54;;;;;;;38.30;20.35;;;;;;;7.14;100.00;102862.31;5068323;28;20189;-72
2022/01/17 10:28:59;;;;;;;43.20;20.08;;;;;;;7.11;100.00;102862.94;5066334;28;20569;-73
2022/01/17 10:36:58;;;;;;;34.58;15.77;;;;;;;7.16;100.00;102867.47;4985611;28;20060;-73
2022/01/17 10:39:24;;;;;;;34.42;15.20;;;;;;;7.17;100.00;102855.31;4980730;28;20542;-74
2022/01/17 10:41:51;;;;;;;45.08;20.30;;;;;;;7.16;100.00;102854.50;4963579;28;20050;-72
2022/01/17 10:44:37;;;;;;;30.27;14.02;;;;;;;7.17;100.00;102849.81;4961061;28;20085;-74
2022/01/17 10:47:20;;;;;;;34.22;15.32;;;;;;;7.17;100.00;102834.13;4972044;28;20058;-74
2022/01/17 10:49:53;;;;;;;21.83;10.75;;;;;;;7.15;100.00;102839.13;4968457;28;20050;-73
2022/01/17 10:52:35;;;;;;;15.48;7.53;;;;;;;7.14;100.00;102836.69;4979387;28;20145;-75
2022/01/17 10:55:10;;;;;;;27.65;12.05;;;;;;;7.17;100.00;102827.78;4976800;28;20199;-73
2022/01/17 10:57:40;;;;;;;45.58;18.65;;;;;;;7.16;100.00;102846.25;4970253;28;20076;-74
2022/01/17 11:00:18;;;;;;;37.95;12.15;;;;;;;7.16;100.00;102860.00;4980075;28;20134;-75
2022/01/17 11:02:52;;;;;;;26.70;11.27;;;;;;;7.18;100.00;102867.97;5048174;28;20052;-73
2022/01/17 11:05:22;;;;;;;23.27;10.07;;;;;;;7.25;100.00;102873.78;5068391;28;20052;-74
2022/01/17 11:07:52;;;;;;;39.25;17.75;;;;;;;7.34;100.00;102885.63;5067882;28;20444;-74
2022/01/17 11:10:23;;;;;;;27.00;11.98;;;;;;;7.36;100.00;102897.94;5055220;28;20048;-74
2022/01/17 11:12:52;;;;;;;26.75;13.27;;;;;;;7.33;100.00;102881.25;5056080;28;20149;-74
2022/01/17 11:15:20;;;;;;;43.30;18.90;;;;;;;7.44;100.00;102888.88;5058637;28;20097;-76
2022/01/17 11:17:53;;;;;;;16.30;7.68;;;;;;;7.39;100.00;102894.53;5066495;28;20071;-73
2022/01/17 11:20:23;;;;;;;35.35;14.75;;;;;;;7.52;100.00;102879.81;5065946;28;22234;-76
2022/01/17 11:22:53;;;;;;;32.08;15.05;;;;;;;7.63;100.00;102874.78;5065217;28;20048;-75
2022/01/17 11:25:22;;;;;;;26.88;10.05;;;;;;;7.52;100.00;102873.47;5060742;28;20052;-77
2022/01/17 11:27:50;;;;;;;41.08;18.00;;;;;;;7.63;100.00;102874.78;5064395;28;20182;-73
2022/01/17 11:30:17;;;;;;;43.70;18.27;;;;;;;7.63;100.00;102880.28;5067656;28;20429;-73
2022/01/17 11:32:49;;;;;;;20.67;9.45;;;;;;;7.63;100.00;102872.03;5067538;28;20066;-74
2022/01/17 11:35:18;;;;;;;41.72;17.98;;;;;;;7.66;100.00;102863.09;5066498;28;20094;-74
2022/01/17 11:37:48;;;;;;;42.15;16.08;;;;;;;7.67;100.00;102861.97;5061105;28;20073;-74
2022/01/17 11:40:21;;;;;;;12.73;6.47;;;;;;;7.59;100.00;102865.53;5050912;28;20044;-73
2022/01/17 11:42:51;;;;;;;42.53;18.45;;;;;;;7.67;100.00;102854.50;5061625;28;20225;-73
2022/01/17 11:45:23;;;;;;;28.40;11.68;;;;;;;7.64;100.00;102860.69;5055848;28;20109;-74
2022/01/17 11:47:51;;;;;;;42.35;18.83;;;;;;;7.71;100.00;102862.94;5062108;28;20048;-74
2022/01/17 11:50:34;;;;;;;45.35;19.27;;;;;;;7.69;100.00;102878.97;5064148;28;20136;-73
2022/01/17 11:53:03;;;;;;;40.17;15.40;;;;;;;7.71;100.00;102861.00;5061961;28;20446;-72